CheckWX is a tool to help pilots better visualize weather data.  It is not intended as a substitute for an official pre-flight weather briefing.

19:03:43 UTC

KJWG METAR
Watonga Regional Airport
Watonga, Oklahoma, USA
Current

9 mins ago

KJWG 201855Z AUTO 17018G25KT 10SM OVC020 20/14 A2978 RMK AO2 LTG DSNT W T02010142
Observed
Nov-20 @ 18:55 UTC
Wind
  • 170° at 18 KTS
  • Gusting to 25 KTS
Visibility
10 SM
Flight Rules
MVFR
Cloud Levels
  • Overcast at 2,000' AGL
Temperature
20°C / 68°F
Dewpoint
14°C / 57°F
Humidity
69%
Altimeter
29.78" Hg
Pressure
1008.42 hPa
Previous

29 mins ago

KJWG 201835Z AUTO 17017KT 10SM OVC017 19/14 A2978 RMK AO2 T01890142
Observed
Nov-20 @ 18:35 UTC
Wind
  • 170° at 17 KTS
Visibility
10 SM
Flight Rules
MVFR
Cloud Levels
  • Overcast at 1,700' AGL
Temperature
19°C / 66°F
Dewpoint
14°C / 57°F
Humidity
73%
Altimeter
29.78" Hg
Pressure
1008.42 hPa
Previous

49 mins ago

KJWG 201815Z AUTO 17017G28KT 10SM OVC015 18/14 A2981 RMK AO2 T01790139
Observed
Nov-20 @ 18:15 UTC
Wind
  • 170° at 17 KTS
  • Gusting to 28 KTS
Visibility
10 SM
Flight Rules
MVFR
Cloud Levels
  • Overcast at 1,500' AGL
Temperature
18°C / 64°F
Dewpoint
14°C / 57°F
Humidity
78%
Altimeter
29.81" Hg
Pressure
1009.52 hPa